^^
Grace C. Lehan Memorial Weather Station Historical Data
Daily Summary for April 27, 2021 Units:  English    Metric   Both
Daily Weekly Monthly Yearly
  High: Low: Average:
Temperature: 45.9 °F 32.5 °F 37.7 °F
Dew Point: 44.8 °F 25.8 °F 34.9 °F
Humidity: 96% 74% 90%
Wind Speed: 6.9mph 0mph 0.1mph
Wind Gust: 15mph - -
Wind- - SW
Pressure: 30.45 in 29.92 in -
Precipitation: 0.27 in    
 
 
Tabular Data for April 27, 2021
Time Temperature Dew Point Pressure Wind Wind Speed Wind Gust Humidity Rainfall Rate (Hourly) solar
00:04 33.3 °F 25.9 °F 30.45 in Calm     74% 0.00 in 0 W/m2
00:09 33.3 °F 25.9 °F 30.45 in Calm     74% 0.00 in 0 W/m2
00:14 33.2 °F 25.8 °F 30.45 in Calm     74% 0.00 in 0 W/m2
00:18 33.1 °F 25.8 °F 30.44 in Calm     74.3% 0.00 in 0 W/m2
00:24 33 °F 26.2 °F 30.44 in Calm     75.7% 0.00 in 0 W/m2
00:29 33.1 °F 26.3 °F 30.44 in Calm     76% 0.00 in 0 W/m2
00:34 33.1 °F 26.4 °F 30.44 in Calm     76% 0.00 in 0 W/m2
00:39 33.2 °F 26.6 °F 30.44 in Calm     76.2% 0.00 in 0 W/m2
00:44 33.4 °F 27 °F 30.43 in Calm     77% 0.00 in 0 W/m2
00:49 33.4 °F 27 °F 30.43 in Calm     77% 0.00 in 0 W/m2
00:54 33.5 °F 27.1 °F 30.43 in Calm     77% 0.00 in 0 W/m2
00:59 33.4 °F 27 °F 30.43 in Calm     77% 0.00 in 0 W/m2
01:04 33.3 °F 26.9 °F 30.43 in Calm     77% 0.00 in 0 W/m2
01:09 33.1 °F 26.7 °F 30.43 in Calm     77% 0.00 in 0 W/m2
01:14 32.9 °F 26.5 °F 30.43 in Calm     77% 0.00 in 0 W/m2
01:19 32.8 °F 26.6 °F 30.43 in Calm     77.5% 0.00 in 0 W/m2
01:24 32.8 °F 26.7 °F 30.43 in Calm     78% 0.00 in 0 W/m2
01:28 32.8 °F 26.9 °F 30.43 in Calm     78.8% 0.00 in 0 W/m2
01:34 32.8 °F 27 °F 30.43 in Calm     79% 0.00 in 0 W/m2
01:39 32.8 °F 27 °F 30.43 in Calm     79% 0.00 in 0 W/m2
01:44 32.8 °F 27.1 °F 30.42 in Calm     79.3% 0.00 in 0 W/m2
01:49 32.8 °F 27.1 °F 30.42 in Calm     79.1% 0.00 in 0 W/m2
01:54 32.8 °F 27 °F 30.42 in Calm     79% 0.00 in 0 W/m2
01:59 32.7 °F 26.9 °F 30.42 in Calm     79% 0.00 in 0 W/m2
02:04 32.6 °F 26.9 °F 30.42 in Calm     79.1% 0.00 in 0 W/m2
02:09 32.6 °F 27.1 °F 30.41 in Calm     80% 0.00 in 0 W/m2
02:12 32.6 °F 27 °F 30.40 in Calm     79.6% 0.00 in 0 W/m2
02:19 32.6 °F 27.1 °F 30.40 in Calm     80% 0.00 in 0 W/m2
02:24 32.6 °F 27.1 °F 30.40 in Calm     80% 0.00 in 0 W/m2
02:29 32.6 °F 27.1 °F 30.40 in Calm     80% 0.00 in 0 W/m2
02:34 32.5 °F 27 °F 30.40 in Calm     80% 0.00 in 0 W/m2
02:39 32.5 °F 27 °F 30.40 in Calm     79.8% 0.00 in 0 W/m2
02:44 32.5 °F 27 °F 30.40 in Calm     80% 0.00 in 0 W/m2
02:49 32.6 °F 27.4 °F 30.39 in Calm     80.9% 0.00 in 0 W/m2
02:54 32.7 °F 27.5 °F 30.39 in Calm     81% 0.00 in 0 W/m2
02:59 32.9 °F 27.7 °F 30.39 in Calm   1 mph 81% 0.00 in 0 W/m2
03:04 33.2 °F 28 °F 30.39 in Calm     81% 0.00 in 0 W/m2
03:09 33.4 °F 28.2 °F 30.38 in Calm     81% 0.00 in 0 W/m2
03:14 33.7 °F 28.3 °F 30.38 in Calm     80.4% 0.00 in 0 W/m2
03:19 33.9 °F 28.4 °F 30.38 in South 0.1 mph 2 mph 80% 0.00 in 0 W/m2
03:24 34.1 °F 28.6 °F 30.38 in South 0.1 mph 2 mph 80% 0.00 in 0 W/m2
03:29 34.3 °F 28.5 °F 30.38 in Calm   2 mph 79.2% 0.00 in 0 W/m2
03:34 34.4 °F 28.6 °F 30.38 in Calm   2 mph 79% 0.00 in 0 W/m2
03:39 34.5 °F 28.7 °F 30.38 in Calm     79% 0.00 in 0 W/m2
03:44 34.5 °F 28.7 °F 30.38 in Calm     79% 0.00 in 0 W/m2
03:49 34.6 °F 28.8 °F 30.38 in Calm     79% 0.00 in 0 W/m2
03:53 34.6 °F 28.8 °F 30.37 in Calm     79% 0.00 in 0 W/m2
03:59 34.5 °F 28.7 °F 30.37 in Calm     79% 0.00 in 0 W/m2
04:04 34.5 °F 28.8 °F 30.38 in Calm     79.4% 0.00 in 0 W/m2
04:09 34.5 °F 29 °F 30.38 in Calm     80% 0.00 in 0 W/m2
04:14 34.5 °F 29.2 °F 30.38 in Calm     80.8% 0.00 in 0 W/m2
04:19 34.5 °F 29.2 °F 30.38 in Calm     81% 0.00 in 0 W/m2
04:24 34.4 °F 29.3 °F 30.37 in Calm     81.4% 0.00 in 0 W/m2
04:29 34.4 °F 29.4 °F 30.37 in Calm     82% 0.00 in 0 W/m2
04:34 34.3 °F 29.5 °F 30.37 in Calm     82.4% 0.00 in 0 W/m2
04:39 34.3 °F 29.6 °F 30.37 in Calm     83% 0.00 in 0 W/m2
04:44 34.2 °F 29.6 °F 30.37 in Calm     83.2% 0.00 in 0 W/m2
04:49 34.1 °F 29.8 °F 30.36 in Calm     84% 0.00 in 0 W/m2
04:54 34.1 °F 29.8 °F 30.36 in Calm     84% 0.00 in 0 W/m2
04:59 34.1 °F 30 °F 30.35 in Calm     84.6% 0.00 in 0 W/m2
05:04 34.1 °F 30.1 °F 30.35 in Calm     85% 0.00 in 0 W/m2
05:09 34.1 °F 30 °F 30.35 in Calm     85% 0.00 in 0 W/m2
05:14 34 °F 30.1 °F 30.35 in Calm     85.5% 0.00 in 0 W/m2
05:19 33.9 °F 30.2 °F 30.35 in Calm     86% 0.00 in 0 W/m2
05:24 33.9 °F 30.2 °F 30.35 in Calm     86% 0.00 in 0 W/m2
05:29 33.9 °F 30.3 °F 30.34 in Calm     86.5% 0.00 in 0 W/m2
05:34 33.8 °F 30.4 °F 30.34 in Calm     87% 0.00 in 0 W/m2
05:39 33.8 °F 30.4 °F 30.34 in Calm     87% 0.00 in 0 W/m2
05:44 33.8 °F 30.4 °F 30.34 in Calm     87.3% 0.00 in 0 W/m2
05:48 33.8 °F 30.6 °F 30.33 in Calm     87.8% 0.00 in 0 W/m2
05:54 33.8 °F 30.6 °F 30.33 in Calm     88% 0.00 in 0 W/m2
05:59 33.9 °F 30.7 °F 30.33 in Calm     88% 0.00 in 0 W/m2
06:04 33.9 °F 30.7 °F 30.32 in Calm     88% 0.00 in 0 W/m2
06:09 33.9 °F 31 °F 30.32 in Calm     88.9% 0.00 in 0 W/m2
06:14 34 °F 31.1 °F 30.32 in Calm     89% 0.00 in 0 W/m2
06:19 34.1 °F 31.2 °F 30.31 in Calm     89% 0.00 in 0 W/m2
06:24 34.1 °F 31.2 °F 30.31 in Calm     89% 0.00 in 0 W/m2
06:29 34.1 °F 31.2 °F 30.31 in Calm     89% 0.00 in 0 W/m2
06:34 34.2 °F 31.3 °F 30.31 in Calm     89% 0.00 in 0 W/m2
06:44 34.2 °F 31.3 °F 30.30 in Calm     89% 0.00 in 0 W/m2
06:49 34.2 °F 31.3 °F 30.30 in Calm     89% 0.00 in 0 W/m2
06:54 34.2 °F 31.6 °F 30.29 in Calm     90% 0.00 in 0 W/m2
06:59 34.1 °F 31.5 °F 30.29 in Calm     90% 0.00 in 7 W/m2
07:04 34.1 °F 31.5 °F 30.29 in Calm     90% 0.00 in 7 W/m2
07:09 34.1 °F 31.5 °F 30.29 in Calm     90% 0.00 in 7 W/m2
07:14 34.1 °F 31.5 °F 30.28 in Calm     90% 0.00 in 9 W/m2
07:18 34.1 °F 31.5 °F 30.28 in Calm     90% 0.00 in 9 W/m2
07:24 34.1 °F 31.7 °F 30.28 in Calm     90.6% 0.00 in 11 W/m2
07:29 34.2 °F 31.9 °F 30.28 in Calm     91% 0.00 in 11 W/m2
07:34 34.2 °F 31.9 °F 30.28 in Calm     91% 0.00 in 14 W/m2
07:39 34.3 °F 31.9 °F 30.28 in Calm     91% 0.00 in 18 W/m2
07:44 34.3 °F 32 °F 30.27 in Calm     91% 0.00 in 23 W/m2
07:49 34.4 °F 32 °F 30.27 in Calm     91% 0.00 in 21 W/m2
07:54 34.5 °F 32.1 °F 30.27 in Calm     91% 0.00 in 19 W/m2
07:59 34.6 °F 32.2 °F 30.27 in Calm     91% 0.00 in 21 W/m2
08:00 34.6 °F 32.3 °F 30.26 in Calm     91% 0.00 in 19 W/m2
08:09 34.7 °F 32.6 °F 30.26 in Calm     92% 0.00 in 28 W/m2
08:14 34.8 °F 32.7 °F 30.26 in Calm     92% 0.00 in 28 W/m2
08:19 34.8 °F 32.8 °F 30.26 in Calm     92% 0.00 in 30 W/m2
08:24 34.9 °F 32.9 °F 30.26 in Calm     92% 0.00 in 42 W/m2
08:29 35.1 °F 33 °F 30.25 in Calm     92% 0.00 in 54 W/m2
08:34 35.2 °F 33.1 °F 30.24 in Calm     92% 0.01 in 67 W/m2
08:39 35.4 °F 33.3 °F 30.24 in Calm     92.2% 0.01 in 65 W/m2
08:44 35.5 °F 33.7 °F 30.24 in Calm     93% 0.02 in 37 W/m2
08:49 35.6 °F 33.8 °F 30.24 in Calm     93% 0.02 in 37 W/m2
08:54 35.7 °F 33.9 °F 30.23 in Calm     93% 0.02 in 35 W/m2
08:59 35.8 °F 34 °F 30.22 in Calm     93% 0.02 in 46 W/m2
09:03 35.9 °F 34.1 °F 30.22 in Calm     93% 0.03 in 53 W/m2
09:08 36 °F 34.2 °F 30.22 in Calm     93% 0.03 in 53 W/m2
09:14 36.2 °F 34.3 °F 30.22 in Calm     93% 0.03 in 53 W/m2
09:19 36.1 °F 34.3 °F 30.22 in Calm     93% 0.03 in 42 W/m2
09:24 36.2 °F 34.4 °F 30.21 in Calm     93% 0.03 in 44 W/m2
09:29 36.2 °F 34.4 °F 30.21 in Calm     93% 0.04 in 42 W/m2
09:34 36.3 °F 34.5 °F 30.20 in Calm     93% 0.04 in 62 W/m2
09:39 36.4 °F 34.6 °F 30.20 in Calm     93% 0.04 in 74 W/m2
09:44 36.6 °F 34.7 °F 30.19 in Calm     93% 0.04 in 62 W/m2
09:49 36.7 °F 34.9 °F 30.19 in Calm     93% 0.05 in 53 W/m2
09:54 36.8 °F 35 °F 30.18 in South 0.3 mph 2 mph 93% 0.05 in 37 W/m2
09:59 36.9 °F 35.1 °F 30.18 in Calm   2 mph 93% 0.05 in 42 W/m2
10:04 36.9 °F 35.1 °F 30.17 in South 0.1 mph 2 mph 93% 0.05 in 39 W/m2
10:09 37 °F 35.2 °F 30.17 in South 0.3 mph 3 mph 93% 0.04 in 40 W/m2
10:14 37 °F 35.2 °F 30.17 in Calm   3 mph 93% 0.04 in 35 W/m2
10:19 37 °F 35.2 °F 30.16 in South 0.1 mph 3 mph 93% 0.04 in 53 W/m2
10:24 37.1 °F 35.3 °F 30.16 in South 0.1 mph 3 mph 93% 0.05 in 62 W/m2
10:29 37.2 °F 35.3 °F 30.15 in Calm   3 mph 93% 0.05 in 49 W/m2
10:34 37.3 °F 35.5 °F 30.15 in Calm   3 mph 93% 0.05 in 58 W/m2
10:38 37.4 °F 35.5 °F 30.14 in Calm     93% 0.04 in 58 W/m2
10:44 37.5 °F 35.6 °F 30.13 in Calm     93% 0.05 in 54 W/m2
10:49 37.5 °F 35.7 °F 30.13 in Calm     93% 0.05 in 40 W/m2
10:54 37.7 °F 35.8 °F 30.12 in Calm     93% 0.05 in 70 W/m2
10:59 37.7 °F 36 °F 30.11 in Calm     93.3% 0.06 in 70 W/m2
11:04 37.8 °F 36.3 °F 30.10 in Calm     94% 0.06 in 72 W/m2
11:09 37.9 °F 36.4 °F 30.09 in Calm     94% 0.06 in 62 W/m2
11:14 38.1 °F 36.5 °F 30.09 in Calm     94% 0.06 in 58 W/m2
11:19 38.2 °F 36.7 °F 30.09 in Calm     94% 0.07 in 49 W/m2
11:24 38.3 °F 36.7 °F 30.08 in South 0.2 mph 2 mph 94% 0.08 in 49 W/m2
11:29 38.4 °F 36.8 °F 30.08 in South 0.1 mph 2 mph 94% 0.08 in 53 W/m2
11:34 38.5 °F 36.9 °F 30.07 in Calm   2 mph 94% 0.08 in 51 W/m2
11:39 38.6 °F 37 °F 30.07 in South 0.1 mph 2 mph 94% 0.07 in 74 W/m2
11:44 38.7 °F 37.1 °F 30.06 in Calm   2 mph 94% 0.08 in 72 W/m2
11:49 38.8 °F 37.2 °F 30.06 in Calm   2 mph 94% 0.09 in 62 W/m2
11:54 38.9 °F 37.3 °F 30.05 in Calm   2 mph 94% 0.09 in 72 W/m2
11:59 39 °F 37.4 °F 30.04 in Calm   2 mph 94% 0.10 in 70 W/m2
12:00 39.1 °F 37.5 °F 30.03 in Calm   2 mph 94% 0.10 in 69 W/m2
12:09 39.3 °F 37.7 °F 30.04 in South 0.2 mph 2 mph 94% 0.08 in 69 W/m2
12:14 39.4 °F 37.8 °F 30.04 in Calm   2 mph 94% 0.09 in 65 W/m2
12:19 39.5 °F 37.9 °F 30.04 in South 0.3 mph 2 mph 94% 0.10 in 65 W/m2
12:24 39.5 °F 38 °F 30.04 in South 0.4 mph 2 mph 94% 0.10 in 56 W/m2
12:29 39.6 °F 38 °F 30.03 in Calm   2 mph 94% 0.11 in 65 W/m2
12:34 39.7 °F 38.1 °F 30.02 in Calm   2 mph 94% 0.11 in 63 W/m2
12:39 39.9 °F 38.3 °F 30.02 in Calm     94% 0.09 in 74 W/m2
12:44 40.2 °F 38.9 °F 30.01 in Calm     95% 0.10 in 69 W/m2
12:49 40.5 °F 39.2 °F 30.01 in Calm     95% 0.11 in 69 W/m2
12:54 40.7 °F 39.4 °F 30.00 in Calm     95% 0.11 in 86 W/m2
12:59 40.8 °F 39.5 °F 30.00 in Calm     95% 0.12 in 67 W/m2
13:04 41 °F 39.7 °F 30.00 in Calm     95% 0.12 in 77 W/m2
13:09 41.1 °F 39.8 °F 29.99 in Calm     95% 0.08 in 91 W/m2
13:14 41.2 °F 39.9 °F 29.98 in Calm     95% 0.09 in 97 W/m2
13:19 41.2 °F 39.9 °F 29.98 in Calm     95% 0.09 in 97 W/m2
13:24 41.4 °F 40.1 °F 29.97 in Calm     95% 0.09 in 102 W/m2
13:29 41.5 °F 40.2 °F 29.96 in Calm     95% 0.09 in 104 W/m2
13:33 41.6 °F 40.3 °F 29.96 in Calm     95% 0.09 in 98 W/m2
13:39 41.9 °F 40.5 °F 29.95 in Calm     95% 0.05 in 93 W/m2
13:44 42.1 °F 40.8 °F 29.94 in Calm     95% 0.05 in 98 W/m2
13:49 42.2 °F 40.9 °F 29.95 in Calm     95% 0.05 in 98 W/m2
13:54 42.4 °F 41 °F 29.95 in Calm     95% 0.05 in 84 W/m2
13:59 42.5 °F 41.2 °F 29.94 in Calm     95% 0.05 in 90 W/m2
14:04 42.7 °F 41.3 °F 29.94 in Calm     95% 0.05 in 79 W/m2
14:08 42.7 °F 41.4 °F 29.95 in Calm     95% 0.01 in 58 W/m2
14:30 42.7 °F 41.4 °F 29.95 in Calm     95% 0.01 in 45 W/m2
15:00 43.4 °F 42.1 °F 29.94 in Calm     95% 0.01 in 51 W/m2
15:30 44.5 °F 43.2 °F 29.93 in Calm     95% 0.01 in 107 W/m2
16:04 45.7 °F 44.6 °F 29.93 in Calm     95.9% 0.01 in 107 W/m2
16:09 45.8 °F 44.7 °F 29.93 in Calm     96% 0.01 in 65 W/m2
16:14 45.9 °F 44.7 °F 29.92 in Calm     95.5% 0.01 in 79 W/m2
16:18 45.9 °F 44.7 °F 29.93 in Calm     95.7% 0.01 in 53 W/m2
16:24 45.9 °F 44.8 °F 29.92 in Calm     95.9% 0.01 in 47 W/m2
16:29 45.8 °F 44.4 °F 29.92 in Calm     95% 0.01 in 95 W/m2
16:34 45.7 °F 44.3 °F 29.93 in Calm     95% 0.01 in 102 W/m2
16:39 45.6 °F 44.2 °F 29.93 in Calm     95% 0.00 in 56 W/m2
16:44 45.4 °F 44.1 °F 29.93 in Calm     95% 0.00 in 56 W/m2
16:49 45.3 °F 44 °F 29.93 in Calm     95% 0.00 in 44 W/m2
16:54 45.1 °F 43.8 °F 29.93 in Calm     95% 0.00 in 40 W/m2
16:59 45 °F 43.7 °F 29.94 in Calm     95% 0.00 in 30 W/m2
17:04 45 °F 43.6 °F 29.94 in Calm     95% 0.00 in 28 W/m2
17:14 44.9 °F 43.6 °F 29.95 in Calm     95% 0.00 in 30 W/m2
17:18 44.9 °F 43.5 °F 29.95 in Calm     95% 0.00 in 23 W/m2
17:24 44.7 °F 43.4 °F 29.96 in Calm     95% 0.00 in 14 W/m2
17:29 44.6 °F 43.3 °F 29.96 in Calm     95% 0.00 in 9 W/m2
17:34 44.5 °F 43.1 °F 29.96 in Calm     95% 0.00 in 5 W/m2
17:38 44.4 °F 43 °F 29.97 in Calm     95% 0.00 in 0 W/m2
17:44 44.2 °F 42.9 °F 29.97 in Calm     95% 0.00 in 0 W/m2
17:49 44.1 °F 42.8 °F 29.98 in Calm     95% 0.00 in 0 W/m2
17:54 44 °F 42.6 °F 29.98 in Calm     95% 0.00 in 0 W/m2
17:59 43.7 °F 42.4 °F 29.98 in Calm     95% 0.00 in 0 W/m2
18:04 43.4 °F 41.8 °F 29.99 in Calm     94.1% 0.00 in 0 W/m2
18:09 43 °F 41.4 °F 30.00 in Calm     94% 0.00 in 0 W/m2
18:14 42.7 °F 41.1 °F 30.00 in Calm     94% 0.00 in 0 W/m2
18:19 42.4 °F 40.8 °F 30.01 in South 0.2 mph 3 mph 94% 0.00 in 0 W/m2
18:24 42 °F 40.4 °F 30.01 in Calm   3 mph 94% 0.00 in 0 W/m2
18:29 41.7 °F 40.1 °F 30.01 in Calm   3 mph 94% 0.00 in 0 W/m2
18:34 41.5 °F 39.9 °F 30.02 in Calm   3 mph 94% 0.00 in 0 W/m2
18:35 41.4 °F 39.8 °F 30.03 in Calm     94% 0.00 in 0 W/m2
19:00 40.2 °F 38.6 °F 30.04 in Calm     94% 0.00 in 0 W/m2
19:30 39.6 °F 38.3 °F 30.05 in Calm     95% 0.00 in 0 W/m2
20:04 40.4 °F 39 °F 30.07 in Calm     95% 0.00 in 0 W/m2
20:09 40.3 °F 38.9 °F 30.07 in Calm     95% 0.00 in 0 W/m2
20:14 40.2 °F 38.9 °F 30.07 in Calm     95% 0.00 in 0 W/m2
20:19 40.3 °F 39 °F 30.08 in Calm     95% 0.00 in 0 W/m2
20:24 40.4 °F 39.1 °F 30.08 in Calm     95% 0.00 in 0 W/m2
20:29 40.3 °F 39 °F 30.08 in Calm     95% 0.00 in 0 W/m2
20:34 40.2 °F 38.8 °F 30.08 in South 0.1 mph 2 mph 95% 0.00 in 0 W/m2
20:39 40 °F 38.7 °F 30.09 in Calm   2 mph 95% 0.00 in 0 W/m2
20:44 40 °F 38.7 °F 30.09 in Calm   2 mph 95% 0.00 in 0 W/m2
20:49 40.2 °F 39.1 °F 30.09 in Calm   2 mph 95.8% 0.00 in 0 W/m2
20:54 40.3 °F 39.2 °F 30.09 in Calm   2 mph 95.7% 0.00 in 0 W/m2
20:59 40 °F 38.8 °F 30.10 in Calm   2 mph 95.1% 0.00 in 0 W/m2
21:04 39.9 °F 38.6 °F 30.10 in Calm   2 mph 95% 0.00 in 0 W/m2
21:09 39.9 °F 38.7 °F 30.10 in Calm     95.4% 0.00 in 0 W/m2
21:14 39.9 °F 38.8 °F 30.10 in Calm     96% 0.00 in 0 W/m2
21:19 39.9 °F 38.9 °F 30.10 in Calm     96% 0.00 in 0 W/m2
21:24 40.1 °F 38.9 °F 30.10 in Calm     95.7% 0.00 in 0 W/m2
21:29 40.1 °F 39 °F 30.10 in Calm     95.8% 0.00 in 0 W/m2
21:33 40 °F 38.9 °F 30.11 in Calm     95.8% 0.00 in 0 W/m2
21:39 40.1 °F 39 °F 30.11 in Calm     95.7% 0.00 in 0 W/m2
21:44 40.1 °F 39.1 °F 30.11 in Calm     96% 0.00 in 0 W/m2
21:49 39.7 °F 38.5 °F 30.12 in Calm     95.3% 0.00 in 0 W/m2
21:54 39.2 °F 37.8 °F 30.12 in Calm     95% 0.00 in 0 W/m2
21:59 38.9 °F 37.6 °F 30.12 in Calm     95% 0.00 in 0 W/m2
22:04 38.8 °F 37.5 °F 30.13 in Calm     95% 0.00 in 0 W/m2
22:09 38.7 °F 37.4 °F 30.13 in Calm     95% 0.00 in 0 W/m2
22:13 38.6 °F 37.3 °F 30.13 in WNW 0.8 mph 6 mph 95% 0.00 in 0 W/m2
22:19 38.8 °F 37.6 °F 30.14 in NW 3.3 mph 11 mph 95.3% 0.00 in 0 W/m2
22:24 39.1 °F 38.1 °F 30.14 in NW 6.9 mph 15 mph 96% 0.00 in 0 W/m2
22:29 39.8 °F 38.8 °F 30.14 in NW 4.4 mph 15 mph 96% 0.00 in 0 W/m2
22:34 40.2 °F 39.1 °F 30.14 in NW 2.2 mph 15 mph 96% 0.00 in 0 W/m2
22:39 40.4 °F 39.3 °F 30.14 in North 1 mph 8 mph 96% 0.00 in 0 W/m2
22:43 40.5 °F 39.3 °F 30.14 in NNW 0.8 mph 8 mph 95.5% 0.00 in 0 W/m2
22:49 40.5 °F 39.2 °F 30.15 in NW 0.3 mph 10 mph 95% 0.00 in 0 W/m2
22:54 40.5 °F 39.2 °F 30.15 in NW 1.5 mph 10 mph 95% 0.00 in 0 W/m2
22:59 40.5 °F 39.2 °F 30.15 in Calm   10 mph 95% 0.00 in 0 W/m2
23:04 40.3 °F 38.7 °F 30.16 in Calm     94% 0.00 in 0 W/m2
23:09 40.3 °F 38.7 °F 30.16 in Calm     94% 0.00 in 0 W/m2
23:14 40.2 °F 38.4 °F 30.16 in Calm     93.4% 0.00 in 0 W/m2
23:19 40 °F 38.1 °F 30.17 in Calm     93% 0.00 in 0 W/m2
23:24 39.8 °F 38 °F 30.16 in Calm     93% 0.00 in 0 W/m2
23:29 39.7 °F 37.8 °F 30.17 in Calm   1 mph 93% 0.00 in 0 W/m2
23:34 39.6 °F 37.7 °F 30.17 in Calm   1 mph 93% 0.00 in 0 W/m2
23:39 39.5 °F 37.6 °F 30.17 in Calm     93% 0.00 in 0 W/m2
23:44 39.3 °F 37.5 °F 30.17 in Calm     93% 0.00 in 0 W/m2
23:49 39.2 °F 37.3 °F 30.17 in NNE 0.3 mph 4 mph 92.8% 0.00 in 0 W/m2
23:54 39 °F 37.2 °F 30.17 in Calm   4 mph 93% 0.00 in 0 W/m2
23:59 38.9 °F 36.8 °F 30.17 in Calm   4 mph 92% 0.00 in 0 W/m2
Hartford County Weather
Compliments of Weather Underground - 2 mb